Terminal Aerodrome Forecast
Issued by NWS

Home | Current Version | Previous Version | Text Only | Print | Product List | Glossary Off
Versions: 1 2 3 4 5 6 7 8 9 10 11 12 13 14 15 16

000
FTUS43 KMPX 242129 AAA
TAFAXN
TAF AMD
KAXN 242129Z 2421/2518 10009KT P6SM -SHRA BKN015 OVC050
     FM250000 08006KT 5SM -RA BR OVC010
     FM250400 05005KT 3SM -RA BR OVC008
     FM250900 01005KT 3SM -RA BR OVC006=

USA.gov is the U.S. government's official web portal to all federal, state and local government web resources and services.